Time;durP1;ratioP1;P1;durP2;ratioP2;P2;SDS_P1;SDS_P2;PMS_P1;PMS_P2;Temp;Humidity;BMP_temperature;BMP_pressure;BME280_temperature;BME280_humidity;BME280_pressure;Samples;Min_cycle;Max_cycle;Signal;HPM_P1;HPM_P2
2021/12/13 00:01:21;;;;;;;;;15.25;14.25;;;;;12.73;100.00;102379.66;4997345;28;45338;-83
2021/12/13 00:03:54;;;;;;;;;15.00;12.50;;;;;12.72;100.00;102372.66;4995476;28;45738;-84
2021/12/13 00:06:27;;;;;;;;;17.25;14.00;;;;;12.69;100.00;102365.59;4996900;28;45273;-84
2021/12/13 00:08:57;;;;;;;;;14.00;12.25;;;;;12.66;100.00;102358.53;4996763;28;45235;-84
2021/12/13 00:11:27;;;;;;;;;20.75;16.00;;;;;12.66;100.00;102365.41;4996954;28;45561;-84
2021/12/13 00:14:21;;;;;;;;;16.50;14.25;;;;;12.64;100.00;102359.19;4998845;28;45384;-84
2021/12/13 00:16:56;;;;;;;;;13.25;13.00;;;;;12.62;100.00;102355.63;4995806;28;45226;-84
2021/12/13 00:19:30;;;;;;;;;14.75;14.25;;;;;12.59;100.00;102348.53;4997295;28;45257;-83
2021/12/13 00:22:04;;;;;;;;;15.75;14.00;;;;;12.58;100.00;102344.13;4997522;28;45487;-83
2021/12/13 00:24:34;;;;;;;;;17.00;12.50;;;;;12.53;100.00;102346.44;4995938;28;45366;-84
2021/12/13 00:27:07;;;;;;;;;13.00;10.00;;;;;12.52;100.00;102339.50;4996720;28;45340;-84
2021/12/13 00:29:41;;;;;;;;;13.00;10.25;;;;;12.51;100.00;102345.50;4978846;28;45317;-82
2021/12/13 00:32:18;;;;;;;;;13.50;10.25;;;;;12.49;100.00;102343.56;4996732;28;45372;-84
2021/12/13 00:34:50;;;;;;;;;16.75;10.75;;;;;12.46;100.00;102343.41;4996348;28;46328;-84
2021/12/13 00:37:28;;;;;;;;;14.50;14.50;;;;;12.47;100.00;102337.41;4962415;28;45320;-84
2021/12/13 00:40:01;;;;;;;;;11.25;10.25;;;;;12.47;100.00;102340.91;4976594;28;45364;-83
2021/12/13 00:42:34;;;;;;;;;12.75;10.50;;;;;12.47;100.00;102340.91;5000497;28;45353;-84
2021/12/13 00:45:06;;;;;;;;;17.50;15.25;;;;;12.47;100.00;102337.41;4999170;28;45402;-84
2021/12/13 00:47:34;;;;;;;;;14.25;12.00;;;;;12.45;100.00;102333.81;4996826;28;45799;-83
2021/12/13 00:50:09;;;;;;;;;10.75;7.75;;;;;12.47;100.00;102337.41;4996924;28;45353;-84
2021/12/13 00:52:38;;;;;;;;;13.25;11.50;;;;;12.45;100.00;102342.50;4997033;28;45357;-84
2021/12/13 00:55:14;;;;;;;;;11.00;9.25;;;;;12.44;100.00;102345.88;4999621;28;46612;-84
2021/12/13 00:57:42;;;;;;;;;10.25;9.50;;;;;12.46;100.00;102341.69;5000359;28;45388;-83
2021/12/13 01:00:19;;;;;;;;;10.50;9.25;;;;;12.48;100.00;102350.47;4999903;28;45547;-83
2021/12/13 01:02:47;;;;;;;;;9.25;9.25;;;;;12.48;100.00;102347.88;5000423;28;45218;-83
2021/12/13 01:05:27;;;;;;;;;10.25;8.00;;;;;12.47;100.00;102348.69;4999303;28;45584;-84
2021/12/13 01:08:08;;;;;;;;;11.00;10.00;;;;;12.50;100.00;102353.16;4999924;28;45323;-84
2021/12/13 01:10:40;;;;;;;;;12.50;11.50;;;;;12.48;100.00;102345.28;5000505;28;45329;-85
2021/12/13 01:13:25;;;;;;;;;12.75;10.25;;;;;12.43;100.00;102346.69;5002029;28;45250;-83
2021/12/13 01:16:02;;;;;;;;;10.00;9.00;;;;;12.43;100.00;102346.69;5000160;28;45560;-83
2021/12/13 01:22:12;;;;;;;;;10.75;7.25;;;;;12.43;100.00;102344.09;4969386;28;45432;-86
2021/12/13 01:27:38;;;;;;;;;11.50;9.25;;;;;12.43;100.00;102338.00;4999464;28;45964;-83
2021/12/13 01:30:07;;;;;;;;;11.50;10.50;;;;;12.43;100.00;102338.91;4985801;28;45697;-83
2021/12/13 01:32:38;;;;;;;;;14.00;10.00;;;;;12.45;100.00;102342.50;4997878;28;45428;-83
2021/12/13 01:35:09;;;;;;;;;11.00;9.00;;;;;12.48;100.00;102333.97;4999207;28;45732;-83
2021/12/13 01:37:35;;;;;;;;;7.75;7.75;;;;;12.47;100.00;102340.00;4999172;28;45554;-82
2021/12/13 01:40:12;;;;;;;;;10.50;10.50;;;;;12.47;100.00;102347.81;5002021;28;45316;-84
2021/12/13 01:42:39;;;;;;;;;8.75;8.25;;;;;12.49;100.00;102346.16;5001768;28;45384;-84
2021/12/13 01:45:10;;;;;;;;;8.00;8.00;;;;;12.49;100.00;102349.69;4999714;28;45686;-83
2021/12/13 01:47:40;;;;;;;;;10.25;8.50;;;;;12.48;100.00;102350.47;4998990;28;45380;-82
2021/12/13 01:50:11;;;;;;;;;10.25;8.75;;;;;12.49;100.00;102349.69;4998946;28;45810;-83
2021/12/13 01:52:38;;;;;;;;;9.25;8.00;;;;;12.51;100.00;102348.09;4997753;28;45510;-83
2021/12/13 01:55:20;;;;;;;;;10.00;8.50;;;;;12.53;100.00;102355.97;4997868;28;45619;-83
2021/12/13 01:57:50;;;;;;;;;10.75;9.25;;;;;12.54;100.00;102349.97;4998150;28;46455;-82
2021/12/13 02:01:08;;;;;;;;;8.25;8.00;;;;;12.58;100.00;102356.25;4998962;28;45712;-82
2021/12/13 02:03:21;;;;;;;;;10.50;8.25;;;;;12.56;100.00;102348.38;4998620;28;45567;-81
2021/12/13 02:05:49;;;;;;;;;8.75;8.25;;;;;12.54;100.00;102347.38;4998886;28;45234;-83
2021/12/13 02:08:20;;;;;;;;;10.00;8.50;;;;;12.55;100.00;102354.38;5001629;28;46105;-82
2021/12/13 02:10:52;;;;;;;;;9.75;8.25;;;;;12.56;100.00;102355.25;5003276;28;45833;-83
2021/12/13 02:13:23;;;;;;;;;9.00;8.50;;;;;12.57;100.00;102349.25;4999178;28;45461;-82
2021/12/13 02:18:45;;;;;;;;;9.75;9.75;;;;;12.59;100.00;102353.72;4997449;28;45280;-84
2021/12/13 02:21:28;;;;;;;;;13.00;9.00;;;;;12.60;100.00;102354.63;4996874;28;45295;-83
2021/12/13 02:24:02;;;;;;;;;11.25;10.25;;;;;12.59;100.00;102358.91;4981189;28;45444;-83
2021/12/13 02:26:29;;;;;;;;;8.75;8.00;;;;;12.57;100.00;102357.97;4998637;28;45564;-82
2021/12/13 02:29:14;;;;;;;;;10.75;10.25;;;;;12.57;100.00;102363.16;4997967;28;45510;-83
2021/12/13 02:31:41;;;;;;;;;10.00;8.50;;;;;12.57;100.00;102360.56;4997873;28;45538;-84
2021/12/13 02:34:12;;;;;;;;;11.00;8.50;;;;;12.55;100.00;102364.75;4996998;28;45253;-83
2021/12/13 02:36:45;;;;;;;;;9.00;9.00;;;;;12.55;100.00;102364.75;5002057;28;45935;-84
2021/12/13 02:39:28;;;;;;;;;10.00;10.00;;;;;12.54;100.00;102352.56;5002951;28;45658;-85
2021/12/13 02:41:58;;;;;;;;;10.25;7.00;;;;;12.53;100.00;102353.38;4998622;28;45793;-83
2021/12/13 02:44:30;;;;;;;;;13.25;10.00;;;;;12.57;100.00;102362.25;4980746;28;45459;-83
2021/12/13 02:47:02;;;;;;;;;9.50;9.50;;;;;12.56;100.00;102353.56;4998487;28;45239;-84
2021/12/13 02:49:31;;;;;;;;;6.25;6.25;;;;;12.54;100.00;102348.25;4997622;28;46634;-80
2021/12/13 02:52:03;;;;;;;;;10.75;9.75;;;;;12.53;100.00;102355.97;4998341;28;45302;-84
2021/12/13 02:54:38;;;;;;;;;13.25;11.00;;;;;12.53;100.00;102354.25;4997720;28;45258;-84
2021/12/13 02:57:27;;;;;;;;;14.50;12.25;;;;;12.56;100.00;102350.97;4997981;28;45671;-84
2021/12/13 03:00:00;;;;;;;;;8.50;7.75;;;;;12.57;100.00;102346.66;4997212;28;45680;-83
2021/12/13 03:02:45;;;;;;;;;12.50;10.00;;;;;12.55;100.00;102349.16;4997992;28;45246;-83
2021/12/13 03:05:26;;;;;;;;;10.50;10.00;;;;;12.54;100.00;102345.66;4998083;28;45563;-83
2021/12/13 03:07:55;;;;;;;;;13.00;9.75;;;;;12.56;100.00;102350.97;5002597;28;45511;-83
2021/12/13 03:10:29;;;;;;;;;11.75;9.00;;;;;12.57;100.00;102351.84;4998869;28;45983;-84
2021/12/13 03:12:55;;;;;;;;;11.00;9.75;;;;;12.56;100.00;102348.38;4998337;28;45223;-82
2021/12/13 03:15:24;;;;;;;;;9.00;9.00;;;;;12.59;100.00;102340.72;4997322;28;45976;-82
2021/12/13 03:17:58;;;;;;;;;11.25;8.75;;;;;12.59;100.00;102340.72;4980929;28;45329;-84
2021/12/13 03:20:38;;;;;;;;;11.25;10.25;;;;;12.60;100.00;102350.31;4980030;28;45563;-83
2021/12/13 03:23:35;;;;;;;;;11.25;9.25;;;;;12.62;100.00;102351.31;4997261;28;45355;-81
2021/12/13 03:26:34;;;;;;;;;12.75;10.00;;;;;12.61;100.00;102340.84;4995939;28;45329;-83
2021/12/13 03:29:18;;;;;;;;;9.00;9.00;;;;;12.57;100.00;102338.84;4998226;28;45476;-83
2021/12/13 03:31:52;;;;;;;;;10.50;7.50;;;;;12.56;100.00;102331.84;4997294;28;46210;-81
2021/12/13 03:34:23;;;;;;;;;9.75;9.00;;;;;12.55;100.00;102328.38;5000591;28;45584;-81
2021/12/13 03:36:55;;;;;;;;;10.25;8.00;;;;;12.54;100.00;102335.25;4984974;28;45372;-83
2021/12/13 03:39:29;;;;;;;;;12.00;8.50;;;;;12.55;100.00;102330.97;4998139;28;45441;-82
2021/12/13 03:41:57;;;;;;;;;11.00;11.00;;;;;12.54;100.00;102326.59;4997328;28;46607;-83
2021/12/13 03:44:34;;;;;;;;;8.75;8.00;;;;;12.56;100.00;102334.47;4996757;28;45455;-83
2021/12/13 03:47:08;;;;;;;;;11.50;10.25;;;;;12.56;100.00;102326.66;4997571;28;45350;-82
2021/12/13 03:49:42;;;;;;;;;10.00;10.00;;;;;12.56;100.00;102321.47;4996980;28;45341;-83
2021/12/13 03:52:11;;;;;;;;;9.75;8.75;;;;;12.54;100.00;102321.38;4997163;28;45407;-81
2021/12/13 03:54:38;;;;;;;;;12.25;9.75;;;;;12.54;100.00;102316.19;4996782;28;45340;-83
2021/12/13 03:57:05;;;;;;;;;9.25;6.50;;;;;12.55;100.00;102318.00;4997012;28;45370;-82
2021/12/13 03:59:34;;;;;;;;;9.00;9.00;;;;;12.53;100.00;102319.59;4996718;28;45326;-83
2021/12/13 04:02:06;;;;;;;;;9.75;9.75;;;;;12.52;100.00;102323.91;4997520;28;45270;-82
2021/12/13 04:04:39;;;;;;;;;8.50;7.25;;;;;12.50;100.00;102320.31;5002732;28;45896;-82
2021/12/13 04:07:30;;;;;;;;;9.75;9.25;;;;;12.53;100.00;102322.19;4998681;28;45396;-83
2021/12/13 04:09:59;;;;;;;;;7.75;7.75;;;;;12.52;100.00;102320.38;4997474;28;45327;-82
2021/12/13 04:12:35;;;;;;;;;9.25;6.75;;;;;12.50;100.00;102322.91;4996331;28;45440;-83
2021/12/13 04:15:30;;;;;;;;;14.75;9.50;;;;;12.50;100.00;102320.31;4996557;28;47442;-83
2021/12/13 04:18:12;;;;;;;;;9.50;9.50;;;;;12.50;100.00;102320.31;4994697;28;45261;-83
2021/12/13 04:20:39;;;;;;;;;17.00;12.25;;;;;12.50;100.00;102316.78;4996633;28;45395;-84
2021/12/13 04:23:15;;;;;;;;;16.50;15.25;;;;;12.50;100.00;102320.31;4978644;28;45637;-84
2021/12/13 04:25:43;;;;;;;;;20.00;15.75;;;;;12.47;100.00;102317.50;4995891;28;46009;-82
2021/12/13 04:28:21;;;;;;;;;15.50;12.75;;;;;12.43;100.00;102323.31;4981160;28;45278;-84
2021/12/13 04:30:55;;;;;;;;;17.50;14.00;;;;;12.41;100.00;102324.94;5000609;28;45326;-84
2021/12/13 04:33:20;;;;;;;;;18.25;14.75;;;;;12.43;100.00;102327.63;4972180;28;46941;-83
2021/12/13 04:35:55;;;;;;;;;13.25;13.25;;;;;12.40;100.00;102320.53;5003297;28;45550;-83
2021/12/13 04:38:25;;;;;;;;;20.00;16.00;;;;;12.39;100.00;102314.44;5000019;28;45447;-83
2021/12/13 04:40:54;;;;;;;;;19.50;16.00;;;;;12.40;100.00;102328.34;5000380;28;45431;-83
2021/12/13 04:43:22;;;;;;;;;14.75;14.75;;;;;12.41;100.00;102318.84;4998381;28;46060;-83
2021/12/13 04:45:55;;;;;;;;;16.00;13.75;;;;;12.40;100.00;102328.34;5000168;28;45471;-83
2021/12/13 04:48:25;;;;;;;;;15.50;15.50;;;;;12.41;100.00;102324.03;4999667;28;45187;-83
2021/12/13 04:50:55;;;;;;;;;15.75;13.00;;;;;12.39;100.00;102322.22;5000215;28;45346;-84
2021/12/13 04:53:44;;;;;;;;;18.00;15.75;;;;;12.39;100.00;102330.03;5002334;28;46411;-84
2021/12/13 04:56:14;;;;;;;;;14.50;13.25;;;;;12.39;100.00;102332.63;4999851;28;45337;-84
2021/12/13 04:58:44;;;;;;;;;13.50;11.50;;;;;12.39;100.00;102332.63;4999193;28;45410;-83
2021/12/13 05:01:13;;;;;;;;;13.00;9.75;;;;;12.39;100.00;102335.22;5000964;28;45414;-83
2021/12/13 05:03:43;;;;;;;;;11.25;11.25;;;;;12.39;100.00;102342.13;5000648;28;45354;-84
2021/12/13 05:06:16;;;;;;;;;12.25;9.00;;;;;12.37;100.00;102336.81;4999893;28;45410;-83
2021/12/13 05:08:45;;;;;;;;;13.00;9.25;;;;;12.39;100.00;102340.41;4999448;28;45523;-84
2021/12/13 05:11:12;;;;;;;;;13.75;9.00;;;;;12.39;100.00;102344.72;5000138;28;45405;-80
2021/12/13 05:13:46;;;;;;;;;10.00;10.00;;;;;12.39;100.00;102347.31;4998696;28;46632;-82
2021/12/13 05:16:15;;;;;;;;;13.25;9.00;;;;;12.40;100.00;102349.13;4999268;28;45458;-82
2021/12/13 05:18:48;;;;;;;;;10.75;9.50;;;;;12.41;100.00;102350.91;4999449;28;45240;-83
2021/12/13 05:21:27;;;;;;;;;14.00;10.00;;;;;12.41;100.00;102343.13;4999259;28;45518;-84
2021/12/13 05:23:57;;;;;;;;;11.00;9.00;;;;;12.42;100.00;102341.41;4998758;28;45479;-82
2021/12/13 05:26:32;;;;;;;;;15.50;12.75;;;;;12.41;100.00;102343.13;4981094;28;45884;-83
2021/12/13 05:29:00;;;;;;;;;12.75;10.25;;;;;12.38;100.00;102341.22;4999557;28;45284;-83
2021/12/13 05:31:27;;;;;;;;;10.00;10.00;;;;;12.39;100.00;102350.81;5003373;28;45498;-83
2021/12/13 05:34:00;;;;;;;;;14.50;13.75;;;;;12.37;100.00;102349.81;5001314;28;46488;-83
2021/12/13 05:36:32;;;;;;;;;13.50;9.75;;;;;12.41;100.00;102347.41;4999453;28;45879;-83
2021/12/13 05:39:13;;;;;;;;;14.50;11.00;;;;;12.42;100.00;102344.88;4997319;28;45739;-84
2021/12/13 05:41:48;;;;;;;;;13.25;12.25;;;;;12.44;100.00;102350.19;4999909;28;45330;-84
2021/12/13 05:44:27;;;;;;;;;15.00;11.50;;;;;12.47;100.00;102350.41;4981000;28;46955;-84
2021/12/13 05:46:54;;;;;;;;;16.25;12.25;;;;;12.49;100.00;102348.78;4983346;28;45901;-82
2021/12/13 05:49:28;;;;;;;;;17.50;11.75;;;;;12.47;100.00;102343.50;5000948;28;45354;-83
2021/12/13 05:52:09;;;;;;;;;11.50;10.75;;;;;12.47;100.00;102351.28;4998988;28;45371;-84
2021/12/13 05:54:41;;;;;;;;;15.75;12.00;;;;;12.49;100.00;102346.16;4998020;28;45514;-83
2021/12/13 05:57:21;;;;;;;;;16.25;13.00;;;;;12.47;100.00;102351.28;4983693;28;45510;-84
2021/12/13 06:00:03;;;;;;;;;15.75;13.50;;;;;12.46;100.00;102348.59;5000474;28;45559;-85
2021/12/13 06:02:39;;;;;;;;;14.50;11.25;;;;;12.42;100.00;102347.50;5004525;28;45470;-83
2021/12/13 06:05:07;;;;;;;;;13.75;13.00;;;;;12.42;100.00;102347.50;4993749;28;45379;-77
2021/12/13 06:07:36;;;;;;;;;11.50;10.50;;;;;12.38;100.00;102350.72;4991329;28;45372;-78
2021/12/13 06:10:08;;;;;;;;;12.50;10.00;;;;;12.37;100.00;102347.19;4980753;28;45189;-79
2021/12/13 06:12:49;;;;;;;;;12.25;10.75;;;;;12.38;100.00;102348.13;4980887;28;45511;-79
2021/12/13 06:15:15;;;;;;;;;11.00;10.00;;;;;12.31;100.00;102341.66;4997818;28;46004;-80
2021/12/13 06:17:44;;;;;;;;;13.50;12.25;;;;;12.29;100.00;102345.84;4997130;28;45404;-79
2021/12/13 06:20:16;;;;;;;;;9.50;8.00;;;;;12.26;100.00;102343.03;4997496;28;45428;-77
2021/12/13 06:22:42;;;;;;;;;8.75;8.25;;;;;12.18;100.00;102346.88;4996384;28;45776;-79
2021/12/13 06:25:23;;;;;;;;;5.50;4.75;;;;;12.14;100.00;102350.09;4998485;28;46190;-79
2021/12/13 06:27:55;;;;;;;;;13.50;10.75;;;;;12.10;100.00;102341.19;4997603;28;45999;-79
2021/12/13 06:30:30;;;;;;;;;9.50;8.75;;;;;12.02;100.00;102342.41;5009303;28;45312;-78
2021/12/13 06:33:04;;;;;;;;;10.25;8.50;;;;;11.99;100.00;102353.50;4999423;28;45282;-79
2021/12/13 06:35:44;;;;;;;;;11.50;8.25;;;;;11.94;100.00;102344.47;4999320;28;45503;-78
2021/12/13 06:38:18;;;;;;;;;6.00;6.00;;;;;11.88;100.00;102355.34;4997478;28;45352;-79
2021/12/13 06:40:56;;;;;;;;;9.50;9.00;;;;;11.81;100.00;102347.97;4980103;28;45611;-79
2021/12/13 06:43:32;;;;;;;;;6.50;6.50;;;;;11.80;100.00;102350.50;4997550;28;45839;-79
2021/12/13 06:46:00;;;;;;;;;13.00;9.75;;;;;11.79;100.00;102346.97;4992042;28;46274;-79
2021/12/13 06:48:43;;;;;;;;;8.00;7.75;;;;;11.77;100.00;102354.69;4997129;28;45921;-76
2021/12/13 06:51:12;;;;;;;;;9.50;7.00;;;;;11.74;100.00;102349.28;4995008;28;45502;-78
2021/12/13 06:53:39;;;;;;;;;9.75;9.25;;;;;11.71;100.00;102345.59;4997731;28;45376;-78
2021/12/13 06:56:25;;;;;;;;;10.00;8.25;;;;;11.68;100.00;102353.16;4996689;28;45388;-78
2021/12/13 06:58:58;;;;;;;;;8.50;8.50;;;;;11.65;100.00;102351.28;4978128;28;45932;-78
2021/12/13 07:01:30;;;;;;;;;13.00;10.50;;;;;11.61;100.00;102345.00;4996568;28;45527;-77
2021/12/13 07:04:09;;;;;;;;;12.75;7.75;;;;;11.63;100.00;102336.41;4980644;28;45515;-80
2021/12/13 07:06:36;;;;;;;;;8.50;8.50;;;;;11.60;100.00;102345.78;4980170;28;47726;-79
2021/12/13 07:09:14;;;;;;;;;4.75;2.25;;;;;11.60;100.00;102350.97;4963770;28;45641;-84
2021/12/13 07:12:00;;;;;;;;;11.25;11.00;;;;;11.64;100.00;102356.38;5090932;27;45335;-81
2021/12/13 07:14:38;;;;;;;;;8.75;8.75;;;;;11.65;100.00;102353.88;5075683;28;45958;-81
2021/12/13 07:17:34;;;;;;;;;10.50;10.00;;;;;11.67;100.00;102360.06;5072320;28;45310;-81
2021/12/13 07:20:13;;;;;;;;;8.00;7.50;;;;;11.67;100.00;102348.78;5072808;27;45596;-83
2021/12/13 07:22:42;;;;;;;;;9.25;8.50;;;;;11.66;100.00;102345.28;5074169;28;46028;-84
2021/12/13 07:25:15;;;;;;;;;9.00;7.25;;;;;11.68;100.00;102347.97;5073381;28;45651;-82
2021/12/13 07:27:48;;;;;;;;;5.50;5.50;;;;;11.66;100.00;102359.97;5074079;28;45721;-82
2021/12/13 07:30:17;;;;;;;;;7.75;6.25;;;;;11.65;100.00;102353.88;5076082;27;45330;-80
2021/12/13 07:32:58;;;;;;;;;9.50;8.50;;;;;11.65;100.00;102368.56;5074387;28;45629;-80
2021/12/13 07:35:41;;;;;;;;;7.50;6.25;;;;;11.68;100.00;102371.31;5074133;28;45380;-84
2021/12/13 07:38:11;;;;;;;;;5.00;5.00;;;;;11.64;100.00;102367.63;5073946;27;45275;-81
2021/12/13 07:40:48;;;;;;;;;9.00;6.00;;;;;11.67;100.00;102370.44;5073679;28;45499;-82
2021/12/13 07:43:16;;;;;;;;;5.00;4.50;;;;;11.68;100.00;102368.72;5081100;27;46525;-81
2021/12/13 07:46:12;;;;;;;;;4.50;4.00;;;;;11.71;100.00;102369.84;5084656;28;45500;-91
2021/12/13 07:48:41;;;;;;;;;5.00;5.00;;;;;11.72;100.00;102375.94;5077974;27;45308;-92
2021/12/13 07:51:15;;;;;;;;;6.00;5.00;;;;;11.72;100.00;102366.44;5076255;27;45314;-90
2021/12/13 07:53:47;;;;;;;;;5.50;5.00;;;;;11.71;100.00;102361.16;5079530;27;45470;-92
2021/12/13 07:56:37;;;;;;;;;5.00;5.00;;;;;11.72;100.00;102365.56;5077101;27;45863;-87
2021/12/13 07:59:17;;;;;;;;;8.75;6.00;;;;;11.75;100.00;102366.66;5084629;28;45228;-88
2021/12/13 08:01:52;;;;;;;;;4.75;4.75;;;;;11.82;100.00;102367.06;5082790;27;45309;-90
2021/12/13 08:04:42;;;;;;;;;4.25;4.25;;;;;11.87;100.00;102363.97;5082981;27;47073;-84
2021/12/13 08:07:21;;;;;;;;;5.00;4.00;;;;;11.92;100.00;102364.25;5078021;27;45723;-82
2021/12/13 08:09:52;;;;;;;;;4.25;4.25;;;;;11.96;100.00;102362.75;5077389;27;45340;-92
2021/12/13 08:12:22;;;;;;;;;2.50;2.50;;;;;11.97;100.00;102369.75;5093658;27;45469;-85
2021/12/13 08:14:50;;;;;;;;;3.25;2.25;;;;;11.97;100.00;102361.97;5091772;27;46675;-81
2021/12/13 08:17:21;;;;;;;;;5.00;4.00;;;;;11.99;100.00;102369.06;5090914;27;45363;-77
2021/12/13 08:19:58;;;;;;;;;4.25;4.00;;;;;11.98;100.00;102367.28;5091766;27;45547;-77
2021/12/13 08:22:29;;;;;;;;;2.75;2.75;;;;;12.04;100.00;102365.06;5065869;28;45577;-79
2021/12/13 08:25:08;;;;;;;;;5.25;3.00;;;;;12.05;100.00;102372.03;5082333;28;46172;-80
2021/12/13 08:27:41;;;;;;;;;4.00;4.00;;;;;12.07;100.00;102372.16;5083512;27;45299;-79
2021/12/13 08:30:09;;;;;;;;;3.50;3.00;;;;;12.10;100.00;102366.25;5061902;28;45504;-79
2021/12/13 08:32:36;;;;;;;;;2.50;2.50;;;;;12.11;100.00;102368.94;5061624;28;45289;-83
2021/12/13 08:35:06;;;;;;;;;4.50;3.50;;;;;12.10;100.00;102364.53;5079022;28;46312;-83
2021/12/13 08:37:37;;;;;;;;;4.00;4.00;;;;;12.08;100.00;102364.47;5079123;28;45907;-82
2021/12/13 08:40:10;;;;;;;;;11.25;9.25;;;;;12.07;100.00;102365.25;5080165;28;45366;-85
2021/12/13 08:42:40;;;;;;;;;4.00;3.00;;;;;12.09;100.00;102367.97;5061346;28;45250;-83
2021/12/13 08:45:05;;;;;;;;;6.25;4.00;;;;;12.12;100.00;102375.06;5079240;27;45882;-81
2021/12/13 08:47:41;;;;;;;;;5.75;3.00;;;;;12.15;100.00;102376.13;5078881;28;45417;-81
2021/12/13 08:50:18;;;;;;;;;3.75;3.75;;;;;12.20;100.00;102377.31;5061796;28;45335;-79
2021/12/13 08:52:46;;;;;;;;;3.50;3.50;;;;;12.27;100.00;102377.72;5084962;27;45291;-83
2021/12/13 08:55:12;;;;;;;;;4.00;4.00;;;;;12.30;100.00;102377.91;5076633;28;47498;-78
2021/12/13 08:57:57;;;;;;;;;8.25;5.00;;;;;12.30;100.00;102375.31;5061917;28;45375;-83
2021/12/13 09:00:47;;;;;;;;;7.25;6.25;;;;;12.33;100.00;102379.00;5079009;28;45326;-81
2021/12/13 09:03:43;;;;;;;;;9.75;8.75;;;;;12.30;100.00;102378.81;5061146;28;45439;-82
2021/12/13 09:06:18;;;;;;;;;7.75;5.25;;;;;12.32;100.00;102385.00;5071120;27;45338;-84
2021/12/13 09:08:52;;;;;;;;;7.25;5.50;;;;;12.30;100.00;102391.78;5079890;28;45390;-84
2021/12/13 09:11:31;;;;;;;;;7.00;7.00;;;;;12.27;100.00;102386.38;5062764;28;45354;-84
2021/12/13 09:14:25;;;;;;;;;9.50;6.75;;;;;12.26;100.00;102394.09;5078712;28;45470;-84
2021/12/13 09:17:22;;;;;;;;;12.75;8.50;;;;;12.20;100.00;102384.22;5075065;28;46493;-84
2021/12/13 09:19:48;;;;;;;;;8.00;7.00;;;;;12.13;100.00;102384.63;5077794;28;45833;-84
2021/12/13 09:22:14;;;;;;;;;5.25;5.25;;;;;12.03;100.00;102394.44;5062142;28;45336;-82
2021/12/13 09:24:51;;;;;;;;;4.00;3.75;;;;;11.94;100.00;102398.97;5082919;28;45309;-83
2021/12/13 09:27:23;;;;;;;;;4.00;4.00;;;;;11.86;100.00;102401.09;5080960;27;45961;-81
2021/12/13 09:29:54;;;;;;;;;3.00;3.00;;;;;11.82;100.00;102401.69;5059406;28;45856;-82
2021/12/13 09:32:24;;;;;;;;;5.25;3.00;;;;;11.78;100.00;102404.84;5058742;28;45306;-82
2021/12/13 09:34:54;;;;;;;;;2.00;2.00;;;;;11.71;100.00;102393.22;5066775;28;45509;-84
2021/12/13 09:37:21;;;;;;;;;7.75;5.00;;;;;11.70;100.00;102399.19;5078651;28;45361;-85
2021/12/13 09:40:00;;;;;;;;;7.25;6.25;;;;;11.73;100.00;102401.09;5060757;28;45376;-80
2021/12/13 09:42:26;;;;;;;;;7.75;6.25;;;;;11.77;100.00;102391.00;5079140;27;45457;-80
2021/12/13 09:45:08;;;;;;;;;6.00;6.00;;;;;11.85;100.00;102398.38;5078304;28;45387;-82
2021/12/13 09:47:41;;;;;;;;;9.50;7.25;;;;;11.92;100.00;102396.28;5077847;28;46331;-79
2021/12/13 09:50:18;;;;;;;;;4.50;4.25;;;;;11.86;100.00;102395.00;5060126;28;45760;-77
2021/12/13 09:52:56;;;;;;;;;3.50;3.25;;;;;11.77;100.00;102401.38;5062265;28;45270;-80
2021/12/13 09:55:25;;;;;;;;;3.75;3.75;;;;;11.68;100.00;102403.38;5078229;28;45501;-80
2021/12/13 09:57:58;;;;;;;;;8.00;4.25;;;;;11.65;100.00;102400.56;5058394;28;45557;-79
2021/12/13 10:00:35;;;;;;;;;4.25;4.25;;;;;11.66;100.00;102404.09;5070905;28;45425;-79
2021/12/13 10:03:09;;;;;;;;;4.00;4.00;;;;;11.71;100.00;102403.59;5072733;28;45417;-78
2021/12/13 10:05:46;;;;;;;;;6.50;4.25;;;;;11.74;100.00;102406.38;5077670;28;45341;-77
2021/12/13 10:08:25;;;;;;;;;5.75;3.00;;;;;11.74;100.00;102411.56;5077631;28;45993;-77
2021/12/13 10:11:03;;;;;;;;;4.75;4.75;;;;;11.73;100.00;102408.88;5077635;27;45473;-81
2021/12/13 10:13:33;;;;;;;;;6.00;6.00;;;;;11.73;100.00;102409.75;5078023;28;45331;-79
2021/12/13 10:16:09;;;;;;;;;9.25;6.00;;;;;11.71;100.00;102402.66;5077758;27;45537;-80
2021/12/13 10:18:39;;;;;;;;;7.75;4.00;;;;;11.68;100.00;102405.97;5076176;28;45412;-82
2021/12/13 10:21:13;;;;;;;;;7.75;7.00;;;;;11.62;100.00;102402.94;5078763;28;45729;-81
2021/12/13 10:23:43;;;;;;;;;6.00;6.00;;;;;11.63;100.00;102401.28;5078579;28;45295;-80
2021/12/13 10:26:11;;;;;;;;;5.25;4.00;;;;;11.59;100.00;102400.19;5078007;28;45230;-81
2021/12/13 10:28:41;;;;;;;;;4.50;4.50;;;;;11.50;100.00;102400.47;5077693;28;46374;-80
2021/12/13 10:31:18;;;;;;;;;6.00;6.00;;;;;11.42;100.00;102389.56;5077227;28;45244;-80
2021/12/13 10:33:45;;;;;;;;;4.25;4.00;;;;;11.45;100.00;102388.88;5075962;28;45239;-80
2021/12/13 10:36:11;;;;;;;;;5.25;5.00;;;;;11.51;100.00;102396.16;5076806;28;45532;-79
2021/12/13 10:38:41;;;;;;;;;3.50;2.50;;;;;11.59;100.00;102392.41;5076494;28;46105;-80
2021/12/13 10:41:18;;;;;;;;;6.00;6.00;;;;;11.66;100.00;102393.69;5058274;28;45354;-81
2021/12/13 10:43:48;;;;;;;;;7.00;7.00;;;;;11.75;100.00;102402.09;5078326;28;45301;-80
2021/12/13 10:46:20;;;;;;;;;7.25;7.25;;;;;11.85;100.00;102403.56;5079891;27;45347;-76
2021/12/13 10:48:50;;;;;;;;;8.25;8.00;;;;;11.91;100.00;102399.69;5096710;27;46585;-76
2021/12/13 10:51:28;;;;;;;;;8.50;7.50;;;;;11.98;100.00;102395.81;5092714;27;45470;-77
2021/12/13 10:53:56;;;;;;;;;7.75;6.50;;;;;12.03;100.00;102389.25;5073598;28;45462;-81
2021/12/13 10:56:28;;;;;;;;;5.25;5.25;;;;;12.06;100.00;102385.94;5074883;27;45461;-80
2021/12/13 10:58:58;;;;;;;;;8.75;7.75;;;;;12.05;100.00;102386.72;5065930;28;46490;-83
2021/12/13 11:01:32;;;;;;;;;5.75;5.75;;;;;12.06;100.00;102391.13;5077879;28;45328;-80
2021/12/13 11:04:02;;;;;;;;;6.00;6.00;;;;;12.06;100.00;102383.34;5076194;28;45508;-80
2021/12/13 11:06:28;;;;;;;;;5.50;4.25;;;;;12.12;100.00;102391.50;5077393;27;45642;-81
2021/12/13 11:08:55;;;;;;;;;5.00;5.00;;;;;12.10;100.00;102385.31;5077116;28;45382;-84
2021/12/13 11:11:28;;;;;;;;;6.00;6.00;;;;;12.10;100.00;102387.03;5084360;27;45920;-81
2021/12/13 11:13:59;;;;;;;;;8.75;8.00;;;;;12.08;100.00;102384.34;5078801;28;45409;-82
2021/12/13 11:16:31;;;;;;;;;10.25;10.00;;;;;12.14;100.00;102391.63;5077214;28;45336;-82
2021/12/13 11:18:59;;;;;;;;;7.50;6.75;;;;;12.19;100.00;102395.41;5058644;28;46777;-82
2021/12/13 11:21:36;;;;;;;;;7.75;7.25;;;;;12.20;100.00;102392.00;5076665;28;45468;-82
2021/12/13 11:24:06;;;;;;;;;9.00;8.00;;;;;12.19;100.00;102388.53;5075848;28;45471;-82
2021/12/13 11:26:35;;;;;;;;;7.00;7.00;;;;;12.21;100.00;102391.22;5076967;28;45393;-82
2021/12/13 11:29:04;;;;;;;;;8.00;6.50;;;;;12.21;100.00;102386.91;5075993;28;45367;-81
2021/12/13 11:31:29;;;;;;;;;8.00;8.00;;;;;12.25;100.00;102388.03;5058976;28;45845;-82
2021/12/13 11:34:21;;;;;;;;;8.50;8.00;;;;;12.28;100.00;102380.41;5068138;28;45486;-80
2021/12/13 11:37:37;;;;;;;;;6.00;6.00;;;;;12.27;100.00;102381.19;5075304;27;45559;-80
2021/12/13 11:40:20;;;;;;;;;7.50;6.00;;;;;12.25;100.00;102387.09;5058233;28;45394;-86
2021/12/13 11:43:04;;;;;;;;;8.25;5.25;;;;;12.26;100.00;102386.31;5075888;27;45742;-82
2021/12/13 11:45:36;;;;;;;;;7.50;7.50;;;;;12.27;100.00;102385.50;5076476;28;45453;-80
2021/12/13 11:48:27;;;;;;;;;8.25;6.00;;;;;12.24;100.00;102378.44;5074918;27;45563;-79
2021/12/13 11:51:12;;;;;;;;;8.00;7.00;;;;;12.25;100.00;102380.22;5075356;28;45667;-79
2021/12/13 11:53:52;;;;;;;;;7.25;6.50;;;;;12.21;100.00;102375.63;5074732;27;45986;-80